This is the latest recevied weather packets stored in our database for station/object W5ITZ. If no packets are shown the sender has not sent any weather packets the latest 10 day(s).
| Time | Temp. | Humidity | Pressure | Rain* | Wind** | Luminosity | Snow |
|---|---|---|---|---|---|---|---|
| 1787437542 | 36.67° C | 53% | 1014.5 hPa | 0 mm | - | 388 W/m² | - |
| 1787437238 | 36.67° C | 51% | 1014.1 hPa | 0 mm | - | 404 W/m² | - |
| 1787436934 | 36.67° C | 49% | 1014.2 hPa | 0 mm | - | 433 W/m² | - |
| 1787436631 | 37.22° C | 48% | 1014.1 hPa | 0 mm | - | 448 W/m² | - |
| 1787436331 | 37.22° C | 47% | 1014.3 hPa | 0 mm | - | 470 W/m² | - |
| 1787436026 | 37.22° C | 46% | 1014.4 hPa | 0 mm | - | 490 W/m² | - |
| 1787435721 | 37.22° C | 46% | 1014.3 hPa | 0 mm | - | 499 W/m² | - |
| 1787435417 | 37.22° C | 45% | 1014.5 hPa | 0 mm | - | 520 W/m² | - |
| 1787435114 | 37.22° C | 46% | 1014.3 hPa | 0 mm | - | 532 W/m² | - |
| 1787434809 | 38.33° C | 43% | 1014.7 hPa | 0 mm | - | 555 W/m² | - |
| 1787434505 | 38.89° C | 36% | 1014.5 hPa | 0 mm | - | 582 W/m² | - |
| 1787434201 | 38.33° C | 36% | 1014.9 hPa | 0 mm | - | 596 W/m² | - |
| 1787433897 | 38.89° C | 35% | 1014.8 hPa | 0 mm | - | 612 W/m² | - |
| 1787433596 | 38.89° C | 35% | 1014.7 hPa | 0 mm | - | 630 W/m² | - |
| 1787433292 | 38.89° C | 35% | 1014.7 hPa | 0 mm | - | 648 W/m² | - |
| 1787432989 | 38.89° C | 32% | 1015 hPa | 0 mm | - | 665 W/m² | - |
| 1787432685 | 38.89° C | 33% | 1014.9 hPa | 0 mm | - | 697 W/m² | - |
| 1787432383 | 39.44° C | 31% | 1015 hPa | 0 mm | - | 709 W/m² | - |
| 1787432079 | 39.44° C | 32% | 1015.2 hPa | 0 mm | - | 721 W/m² | - |
| 1787431778 | 40° C | 31% | 1015.4 hPa | 0 mm | - | 740 W/m² | - |
| 1787431473 | 38.89° C | 34% | 1015.3 hPa | 0 mm | - | 757 W/m² | - |
| 1787431169 | 38.89° C | 34% | 1015.4 hPa | 0 mm | - | 767 W/m² | - |
| 1787430865 | 39.44° C | 32% | 1015.5 hPa | 0 mm | - | 783 W/m² | - |
| 1787430560 | 39.44° C | 32% | 1015.5 hPa | 0 mm | - | 795 W/m² | - |
| 1787430258 | 38.33° C | 33% | 1015.3 hPa | 0 mm | - | 810 W/m² | - |
* Rain latest hour (hover to see other rain measurements)
** Current wind speed in m/s (hover to see current wind gust speed)